sensor_id;sensor_type;location;lat;lon;timestamp;pressure;altitude;pressure_sealevel;temperature;humidity
16431;BME280;8325;49.284;7.238;2024-01-06T05:04:15;97710.13;;;3.99;100.00
16431;BME280;8325;49.284;7.238;2024-01-06T05:08:27;97715.16;;;4.01;100.00
16431;BME280;8325;49.284;7.238;2024-01-06T05:12:38;97718.56;;;4.01;100.00
16431;BME280;8325;49.284;7.238;2024-01-06T05:16:50;97730.31;;;3.96;100.00
16431;BME280;8325;49.284;7.238;2024-01-06T05:21:02;97730.00;;;3.99;100.00
16431;BME280;8325;49.284;7.238;2024-01-06T05:25:14;97732.59;;;3.99;100.00
16431;BME280;8325;49.284;7.238;2024-01-06T05:29:26;97728.91;;;4.01;100.00
16431;BME280;8325;49.284;7.238;2024-01-06T05:33:38;97719.66;;;3.99;100.00
16431;BME280;8325;49.284;7.238;2024-01-06T05:37:49;97724.53;;;4.02;100.00
16431;BME280;8325;49.284;7.238;2024-01-06T05:42:01;97716.63;;;4.03;100.00
16431;BME280;8325;49.284;7.238;2024-01-06T05:46:23;97723.91;;;4.08;100.00
16431;BME280;8325;49.284;7.238;2024-01-06T05:50:35;97713.09;;;4.12;100.00
16431;BME280;8325;49.284;7.238;2024-01-06T05:54:46;97713.28;;;4.11;100.00
16431;BME280;8325;49.284;7.238;2024-01-06T05:58:58;97716.72;;;4.20;100.00
16431;BME280;8325;49.284;7.238;2024-01-06T06:03:10;97728.53;;;4.22;100.00
16431;BME280;8325;49.284;7.238;2024-01-06T06:07:21;97737.91;;;4.23;100.00
16431;BME280;8325;49.284;7.238;2024-01-06T06:11:33;97743.50;;;4.19;100.00
16431;BME280;8325;49.284;7.238;2024-01-06T06:15:45;97746.94;;;4.19;100.00
16431;BME280;8325;49.284;7.238;2024-01-06T06:19:57;97754.72;;;4.27;100.00
16431;BME280;8325;49.284;7.238;2024-01-06T06:24:09;97755.53;;;4.28;100.00
16431;BME280;8325;49.284;7.238;2024-01-06T06:28:21;97759.59;;;4.30;100.00
16431;BME280;8325;49.284;7.238;2024-01-06T06:32:32;97766.03;;;4.26;100.00
16431;BME280;8325;49.284;7.238;2024-01-06T06:36:44;97771.34;;;4.25;100.00
16431;BME280;8325;49.284;7.238;2024-01-06T06:40:57;97778.97;;;4.26;100.00
16431;BME280;8325;49.284;7.238;2024-01-06T06:45:09;97782.50;;;4.25;100.00
16431;BME280;8325;49.284;7.238;2024-01-06T06:49:23;97789.50;;;4.33;100.00
16431;BME280;8325;49.284;7.238;2024-01-06T06:53:34;97797.41;;;4.31;100.00
16431;BME280;8325;49.284;7.238;2024-01-06T06:57:46;97797.41;;;4.31;100.00
16431;BME280;8325;49.284;7.238;2024-01-06T07:01:58;97801.31;;;4.35;100.00
16431;BME280;8325;49.284;7.238;2024-01-06T07:06:13;97800.81;;;4.32;100.00
16431;BME280;8325;49.284;7.238;2024-01-06T07:10:25;97812.63;;;4.34;100.00
16431;BME280;8325;49.284;7.238;2024-01-06T07:14:37;97817.69;;;4.44;100.00
16431;BME280;8325;49.284;7.238;2024-01-06T07:18:49;97816.53;;;4.38;100.00
16431;BME280;8325;49.284;7.238;2024-01-06T07:23:00;97825.28;;;4.46;100.00
16431;BME280;8325;49.284;7.238;2024-01-06T07:27:14;97828.22;;;4.51;100.00
16431;BME280;8325;49.284;7.238;2024-01-06T07:31:26;97834.06;;;4.53;100.00
16431;BME280;8325;49.284;7.238;2024-01-06T07:35:38;97834.72;;;4.55;100.00
16431;BME280;8325;49.284;7.238;2024-01-06T07:39:54;97843.13;;;4.57;100.00
16431;BME280;8325;49.284;7.238;2024-01-06T07:44:05;97855.09;;;4.58;100.00
16431;BME280;8325;49.284;7.238;2024-01-06T07:48:17;97859.16;;;4.60;100.00
16431;BME280;8325;49.284;7.238;2024-01-06T07:52:29;97862.53;;;4.61;100.00
16431;BME280;8325;49.284;7.238;2024-01-06T07:56:40;97879.41;;;4.65;100.00
16431;BME280;8325;49.284;7.238;2024-01-06T08:00:53;97874.84;;;4.59;100.00
16431;BME280;8325;49.284;7.238;2024-01-06T08:05:05;97875.47;;;4.61;100.00
16431;BME280;8325;49.284;7.238;2024-01-06T08:09:18;97887.97;;;4.66;100.00
16431;BME280;8325;49.284;7.238;2024-01-06T08:13:29;97877.13;;;4.62;100.00
16431;BME280;8325;49.284;7.238;2024-01-06T08:17:41;97882.31;;;4.62;100.00
16431;BME280;8325;49.284;7.238;2024-01-06T08:21:54;97891.50;;;4.65;100.00
16431;BME280;8325;49.284;7.238;2024-01-06T08:26:06;97897.50;;;4.65;100.00
16431;BME280;8325;49.284;7.238;2024-01-06T08:30:21;97890.41;;;4.67;100.00
16431;BME280;8325;49.284;7.238;2024-01-06T08:34:35;97897.50;;;4.65;100.00
16431;BME280;8325;49.284;7.238;2024-01-06T08:38:47;97900.59;;;4.69;100.00
16431;BME280;8325;49.284;7.238;2024-01-06T08:42:59;97905.78;;;4.69;100.00
16431;BME280;8325;49.284;7.238;2024-01-06T08:47:11;97913.06;;;4.73;100.00
16431;BME280;8325;49.284;7.238;2024-01-06T08:51:23;97911.28;;;4.74;100.00
16431;BME280;8325;49.284;7.238;2024-01-06T08:55:35;97909.53;;;4.74;100.00
16431;BME280;8325;49.284;7.238;2024-01-06T08:59:47;97915.41;;;4.84;100.00
16431;BME280;8325;49.284;7.238;2024-01-06T09:03:58;97918.81;;;4.85;100.00
16431;BME280;8325;49.284;7.238;2024-01-06T09:08:10;97922.69;;;4.89;100.00
16431;BME280;8325;49.284;7.238;2024-01-06T09:12:22;97929.22;;;4.93;100.00
16431;BME280;8325;49.284;7.238;2024-01-06T09:16:34;97933.59;;;5.01;100.00
16431;BME280;8325;49.284;7.238;2024-01-06T09:20:45;97933.50;;;5.11;100.00
16431;BME280;8325;49.284;7.238;2024-01-06T09:25:00;97933.03;;;5.15;100.00
16431;BME280;8325;49.284;7.238;2024-01-06T09:29:12;97928.84;;;5.14;100.00
16431;BME280;8325;49.284;7.238;2024-01-06T09:33:23;97934.66;;;5.16;100.00
16431;BME280;8325;49.284;7.238;2024-01-06T09:37:35;97943.44;;;5.23;100.00
16431;BME280;8325;49.284;7.238;2024-01-06T09:41:47;97947.66;;;5.32;100.00
16431;BME280;8325;49.284;7.238;2024-01-06T09:46:06;97951.09;;;5.33;100.00
16431;BME280;8325;49.284;7.238;2024-01-06T09:50:21;97959.19;;;5.30;100.00
16431;BME280;8325;49.284;7.238;2024-01-06T09:54:34;97959.81;;;5.32;100.00
16431;BME280;8325;49.284;7.238;2024-01-06T09:58:48;97970.03;;;5.34;100.00
16431;BME280;8325;49.284;7.238;2024-01-06T10:03:00;97960.31;;;5.36;100.00
16431;BME280;8325;49.284;7.238;2024-01-06T10:07:12;97961.28;;;5.35;100.00
16431;BME280;8325;49.284;7.238;2024-01-06T10:11:25;97962.25;;;5.34;100.00
16431;BME280;8325;49.284;7.238;2024-01-06T10:15:37;97962.59;;;5.39;100.00
16431;BME280;8325;49.284;7.238;2024-01-06T10:19:49;97970.72;;;5.44;100.00
16431;BME280;8325;49.284;7.238;2024-01-06T10:24:01;97962.06;;;5.61;100.00
16431;BME280;8325;49.284;7.238;2024-01-06T10:28:12;97963.34;;;5.65;100.00
16431;BME280;8325;49.284;7.238;2024-01-06T10:32:25;97962.44;;;5.91;100.00
16431;BME280;8325;49.284;7.238;2024-01-06T10:36:40;97967.09;;;6.30;100.00
16431;BME280;8325;49.284;7.238;2024-01-06T10:41:04;97960.63;;;6.42;100.00
16431;BME280;8325;49.284;7.238;2024-01-06T10:45:19;97960.28;;;6.45;100.00
16431;BME280;8325;49.284;7.238;2024-01-06T10:49:33;97959.97;;;6.48;100.00
16431;BME280;8325;49.284;7.238;2024-01-06T10:53:45;97961.59;;;6.57;100.00
16431;BME280;8325;49.284;7.238;2024-01-06T10:57:57;97968.41;;;6.50;100.00
16431;BME280;8325;49.284;7.238;2024-01-06T11:02:10;97965.16;;;6.32;100.00
16431;BME280;8325;49.284;7.238;2024-01-06T11:06:23;97964.97;;;6.17;100.00
16431;BME280;8325;49.284;7.238;2024-01-06T11:10:37;97951.84;;;6.10;100.00
16431;BME280;8325;49.284;7.238;2024-01-06T11:14:50;97956.84;;;6.12;100.00
16431;BME280;8325;49.284;7.238;2024-01-06T11:19:02;97952.78;;;6.09;100.00
16431;BME280;8325;49.284;7.238;2024-01-06T11:23:18;97951.34;;;6.15;100.00
16431;BME280;8325;49.284;7.238;2024-01-06T11:27:34;97947.78;;;6.24;100.00
16431;BME280;8325;49.284;7.238;2024-01-06T11:32:39;97946.19;;;6.23;100.00
16431;BME280;8325;49.284;7.238;2024-01-06T11:36:48;97939.53;;;6.29;100.00
16431;BME280;8325;49.284;7.238;2024-01-06T11:41:00;97937.94;;;6.44;100.00
16431;BME280;8325;49.284;7.238;2024-01-06T11:45:12;97936.78;;;6.47;100.00
16431;BME280;8325;49.284;7.238;2024-01-06T11:49:28;97949.09;;;6.44;100.00
16431;BME280;8325;49.284;7.238;2024-01-06T11:53:39;97936.13;;;6.36;100.00
16431;BME280;8325;49.284;7.238;2024-01-06T11:57:52;97950.53;;;6.31;100.00
16431;BME280;8325;49.284;7.238;2024-01-06T12:02:04;97942.13;;;6.37;100.00
16431;BME280;8325;49.284;7.238;2024-01-06T12:06:20;97942.13;;;6.37;100.00
16431;BME280;8325;49.284;7.238;2024-01-06T12:10:33;97940.03;;;6.40;100.00
16431;BME280;8325;49.284;7.238;2024-01-06T12:14:44;97937.78;;;6.37;100.00
16431;BME280;8325;49.284;7.238;2024-01-06T12:18:59;97933.72;;;6.35;100.00
16431;BME280;8325;49.284;7.238;2024-01-06T12:23:12;97937.09;;;6.35;100.00
16431;BME280;8325;49.284;7.238;2024-01-06T12:27:24;97932.38;;;6.31;100.00
16431;BME280;8325;49.284;7.238;2024-01-06T12:31:36;97921.88;;;6.40;100.00
16431;BME280;8325;49.284;7.238;2024-01-06T12:35:50;97917.50;;;6.41;100.00
16431;BME280;8325;49.284;7.238;2024-01-06T12:40:02;97914.56;;;6.52;100.00
16431;BME280;8325;49.284;7.238;2024-01-06T12:44:14;97917.97;;;6.61;100.00
16431;BME280;8325;49.284;7.238;2024-01-06T12:48:25;97913.91;;;6.58;100.00
16431;BME280;8325;49.284;7.238;2024-01-06T12:52:37;97922.81;;;6.56;100.00
16431;BME280;8325;49.284;7.238;2024-01-06T12:56:50;97920.41;;;6.54;100.00
16431;BME280;8325;49.284;7.238;2024-01-06T13:01:02;97919.75;;;6.52;100.00
16431;BME280;8325;49.284;7.238;2024-01-06T13:05:14;97923.97;;;6.53;100.00
16431;BME280;8325;49.284;7.238;2024-01-06T13:09:26;97922.84;;;6.48;100.00
16431;BME280;8325;49.284;7.238;2024-01-06T13:13:38;97933.22;;;6.48;100.00
16431;BME280;8325;49.284;7.238;2024-01-06T13:17:50;97938.88;;;6.51;100.00
16431;BME280;8325;49.284;7.238;2024-01-06T13:22:03;97932.25;;;6.57;100.00
16431;BME280;8325;49.284;7.238;2024-01-06T13:26:15;97933.53;;;6.61;100.00
16431;BME280;8325;49.284;7.238;2024-01-06T13:30:26;97939.66;;;6.68;100.00
16431;BME280;8325;49.284;7.238;2024-01-06T13:34:39;97941.78;;;6.73;100.00
16431;BME280;8325;49.284;7.238;2024-01-06T13:38:50;97943.41;;;6.74;100.00
16431;BME280;8325;49.284;7.238;2024-01-06T13:43:02;97945.69;;;6.68;100.00
16431;BME280;8325;49.284;7.238;2024-01-06T13:47:16;97952.50;;;6.69;100.00
16431;BME280;8325;49.284;7.238;2024-01-06T13:51:28;97951.69;;;6.69;100.00
16431;BME280;8325;49.284;7.238;2024-01-06T13:55:40;97957.03;;;6.76;100.00
16431;BME280;8325;49.284;7.238;2024-01-06T13:59:51;97957.84;;;6.76;100.00
16431;BME280;8325;49.284;7.238;2024-01-06T14:04:03;97966.09;;;6.80;100.00
16431;BME280;8325;49.284;7.238;2024-01-06T14:08:17;97959.78;;;6.82;100.00
16431;BME280;8325;49.284;7.238;2024-01-06T14:12:29;97970.66;;;6.78;100.00
16431;BME280;8325;49.284;7.238;2024-01-06T14:16:40;97971.31;;;6.63;100.00
16431;BME280;8325;49.284;7.238;2024-01-06T14:20:54;97971.31;;;6.55;100.00
16431;BME280;8325;49.284;7.238;2024-01-06T14:25:07;97984.59;;;6.52;100.00
16431;BME280;8325;49.284;7.238;2024-01-06T14:29:19;97978.31;;;6.47;100.00
16431;BME280;8325;49.284;7.238;2024-01-06T14:33:31;97984.31;;;6.47;100.00
16431;BME280;8325;49.284;7.238;2024-01-06T14:37:43;97988.84;;;6.45;100.00
16431;BME280;8325;49.284;7.238;2024-01-06T14:41:55;97998.06;;;6.48;100.00
16431;BME280;8325;49.284;7.238;2024-01-06T14:46:07;97997.25;;;6.39;100.00
16431;BME280;8325;49.284;7.238;2024-01-06T14:50:19;98001.31;;;6.41;100.00
16431;BME280;8325;49.284;7.238;2024-01-06T14:54:31;98006.03;;;6.38;100.00
16431;BME280;8325;49.284;7.238;2024-01-06T14:58:44;98003.25;;;6.39;100.00
16431;BME280;8325;49.284;7.238;2024-01-06T15:02:56;98007.63;;;6.39;100.00
16431;BME280;8325;49.284;7.238;2024-01-06T15:07:08;98011.22;;;6.38;100.00
16431;BME280;8325;49.284;7.238;2024-01-06T15:11:20;98011.53;;;6.35;100.00
16431;BME280;8325;49.284;7.238;2024-01-06T15:15:31;98016.06;;;6.33;100.00
16431;BME280;8325;49.284;7.238;2024-01-06T15:19:45;98018.81;;;6.31;100.00
16431;BME280;8325;49.284;7.238;2024-01-06T15:23:57;98017.03;;;6.32;100.00
16431;BME280;8325;49.284;7.238;2024-01-06T15:28:09;98018.47;;;6.26;100.00
16431;BME280;8325;49.284;7.238;2024-01-06T15:32:21;98025.59;;;6.24;100.00
16431;BME280;8325;49.284;7.238;2024-01-06T15:36:32;98024.13;;;6.21;100.00
16431;BME280;8325;49.284;7.238;2024-01-06T15:40:44;98022.69;;;6.19;100.00
16431;BME280;8325;49.284;7.238;2024-01-06T15:44:56;98030.28;;;6.20;100.00
16431;BME280;8325;49.284;7.238;2024-01-06T15:49:07;98039.06;;;6.19;100.00
16431;BME280;8325;49.284;7.238;2024-01-06T15:53:20;98043.75;;;6.16;100.00
16431;BME280;8325;49.284;7.238;2024-01-06T15:57:31;98043.75;;;6.16;100.00
16431;BME280;8325;49.284;7.238;2024-01-06T16:01:44;98045.69;;;6.14;100.00
16431;BME280;8325;49.284;7.238;2024-01-06T16:05:56;98046.63;;;6.05;100.00
16431;BME280;8325;49.284;7.238;2024-01-06T16:10:08;98045.50;;;6.07;100.00
16431;BME280;8325;49.284;7.238;2024-01-06T16:14:20;98044.53;;;6.08;100.00
16431;BME280;8325;49.284;7.238;2024-01-06T16:18:31;98050.69;;;6.07;100.00
16431;BME280;8325;49.284;7.238;2024-01-06T16:22:43;98059.41;;;6.06;100.00
16431;BME280;8325;49.284;7.238;2024-01-06T16:26:57;98067.19;;;6.06;100.00
16431;BME280;8325;49.284;7.238;2024-01-06T16:31:09;98069.78;;;6.06;100.00
16431;BME280;8325;49.284;7.238;2024-01-06T16:35:21;98062.81;;;5.98;100.00
16431;BME280;8325;49.284;7.238;2024-01-06T16:39:32;98075.91;;;5.97;100.00
16431;BME280;8325;49.284;7.238;2024-01-06T16:43:44;98072.00;;;5.93;100.00
16431;BME280;8325;49.284;7.238;2024-01-06T16:47:56;98071.03;;;5.94;100.00
16431;BME280;8325;49.284;7.238;2024-01-06T16:52:07;98070.38;;;5.92;100.00
16431;BME280;8325;49.284;7.238;2024-01-06T16:56:19;98078.16;;;5.92;100.00
16431;BME280;8325;49.284;7.238;2024-01-06T17:00:31;98077.34;;;5.91;100.00
16431;BME280;8325;49.284;7.238;2024-01-06T17:04:42;98085.66;;;5.95;100.00
16431;BME280;8325;49.284;7.238;2024-01-06T17:08:54;98085.66;;;5.95;100.00
16431;BME280;8325;49.284;7.238;2024-01-06T17:13:06;98089.13;;;5.86;100.00
16431;BME280;8325;49.284;7.238;2024-01-06T17:17:18;98092.28;;;5.71;100.00
16431;BME280;8325;49.284;7.238;2024-01-06T17:21:30;98102.59;;;5.63;100.00
16431;BME280;8325;49.284;7.238;2024-01-06T17:25:41;98103.94;;;5.67;100.00
16431;BME280;8325;49.284;7.238;2024-01-06T17:29:53;98101.78;;;5.63;100.00
16431;BME280;8325;49.284;7.238;2024-01-06T17:34:05;98106.53;;;5.67;100.00
16431;BME280;8325;49.284;7.238;2024-01-06T17:38:16;98105.88;;;5.65;100.00
16431;BME280;8325;49.284;7.238;2024-01-06T17:42:28;98117.22;;;5.64;100.00
16431;BME280;8325;49.284;7.238;2024-01-06T17:46:40;98116.47;;;5.54;100.00
16431;BME280;8325;49.284;7.238;2024-01-06T17:50:51;98122.31;;;5.56;100.00
16431;BME280;8325;49.284;7.238;2024-01-06T17:55:03;98124.22;;;5.46;100.00
16431;BME280;8325;49.284;7.238;2024-01-06T17:59:15;98129.09;;;5.49;100.00
16431;BME280;8325;49.284;7.238;2024-01-06T18:03:26;98125.38;;;5.51;100.00
16431;BME280;8325;49.284;7.238;2024-01-06T18:07:38;98137.06;;;5.56;100.00
16431;BME280;8325;49.284;7.238;2024-01-06T18:11:50;98138.03;;;5.54;100.00
16431;BME280;8325;49.284;7.238;2024-01-06T18:16:02;98140.25;;;5.49;100.00
16431;BME280;8325;49.284;7.238;2024-01-06T18:20:14;98139.75;;;5.46;100.00
16431;BME280;8325;49.284;7.238;2024-01-06T18:24:25;98143.88;;;5.39;100.00
16431;BME280;8325;49.284;7.238;2024-01-06T18:28:37;98143.34;;;5.27;100.00
16431;BME280;8325;49.284;7.238;2024-01-06T18:32:49;98153.41;;;5.12;100.00
16431;BME280;8325;49.284;7.238;2024-01-06T18:37:02;98159.09;;;4.98;100.00
16431;BME280;8325;49.284;7.238;2024-01-06T18:41:14;98161.69;;;4.98;100.00
16431;BME280;8325;49.284;7.238;2024-01-06T18:45:26;98158.50;;;4.86;100.00
16431;BME280;8325;49.284;7.238;2024-01-06T18:49:37;98154.88;;;4.79;100.00
16431;BME280;8325;49.284;7.238;2024-01-06T18:53:49;98164.03;;;4.73;100.00
16431;BME280;8325;49.284;7.238;2024-01-06T18:58:01;98169.91;;;4.48;100.00
16431;BME280;8325;49.284;7.238;2024-01-06T19:02:13;98175.31;;;4.54;100.00
16431;BME280;8325;49.284;7.238;2024-01-06T19:06:25;98184.75;;;4.46;100.00
16431;BME280;8325;49.284;7.238;2024-01-06T19:10:36;98183.47;;;4.32;100.00
16431;BME280;8325;49.284;7.238;2024-01-06T19:14:48;98187.44;;;4.26;100.00
16431;BME280;8325;49.284;7.238;2024-01-06T19:19:00;98194.28;;;4.18;100.00
16431;BME280;8325;49.284;7.238;2024-01-06T19:23:12;98197.56;;;4.10;100.00
16431;BME280;8325;49.284;7.238;2024-01-06T19:27:24;98200.25;;;4.18;100.00
16431;BME280;8325;49.284;7.238;2024-01-06T19:31:36;98201.09;;;4.09;100.00
16431;BME280;8325;49.284;7.238;2024-01-06T19:35:47;98205.34;;;4.10;100.00
16431;BME280;8325;49.284;7.238;2024-01-06T19:39:59;98212.53;;;4.16;100.00
16431;BME280;8325;49.284;7.238;2024-01-06T19:44:11;98202.47;;;4.13;100.00
16431;BME280;8325;49.284;7.238;2024-01-06T19:48:23;98213.84;;;4.20;100.00
16431;BME280;8325;49.284;7.238;2024-01-06T19:52:35;98209.50;;;4.21;100.00
16431;BME280;8325;49.284;7.238;2024-01-06T19:56:47;98207.63;;;4.13;100.00
16431;BME280;8325;49.284;7.238;2024-01-06T20:00:58;98208.28;;;4.15;100.00
16431;BME280;8325;49.284;7.238;2024-01-06T20:05:10;98208.97;;;4.17;100.00
16431;BME280;8325;49.284;7.238;2024-01-06T20:09:22;98209.28;;;4.04;100.00
16431;BME280;8325;49.284;7.238;2024-01-06T20:13:34;98210.34;;;4.11;100.00
16431;BME280;8325;49.284;7.238;2024-01-06T20:17:45;98215.56;;;4.02;100.00
16431;BME280;8325;49.284;7.238;2024-01-06T20:21:57;98214.03;;;4.09;100.00
16431;BME280;8325;49.284;7.238;2024-01-06T20:26:09;98213.38;;;3.97;100.00
16431;BME280;8325;49.284;7.238;2024-01-06T20:30:21;98214.22;;;3.98;100.00
16431;BME280;8325;49.284;7.238;2024-01-06T20:34:32;98213.66;;;4.04;100.00
16431;BME280;8325;49.284;7.238;2024-01-06T20:38:45;98211.06;;;4.04;100.00
16431;BME280;8325;49.284;7.238;2024-01-06T20:42:58;98220.16;;;4.08;100.00
16431;BME280;8325;49.284;7.238;2024-01-06T20:47:10;98220.72;;;4.02;100.00
16431;BME280;8325;49.284;7.238;2024-01-06T20:51:21;98227.00;;;3.89;100.00
16431;BME280;8325;49.284;7.238;2024-01-06T20:55:33;98218.69;;;3.96;100.00
16431;BME280;8325;49.284;7.238;2024-01-06T20:59:44;98220.47;;;3.95;100.00
16431;BME280;8325;49.284;7.238;2024-01-06T21:03:56;98215.81;;;3.99;100.00
16431;BME280;8325;49.284;7.238;2024-01-06T21:08:08;98213.09;;;4.00;100.00
16431;BME280;8325;49.284;7.238;2024-01-06T21:12:19;98218.25;;;4.00;100.00
16431;BME280;8325;49.284;7.238;2024-01-06T21:16:31;98211.19;;;4.02;100.00
16431;BME280;8325;49.284;7.238;2024-01-06T21:20:43;98213.34;;;4.17;100.00
16431;BME280;8325;49.284;7.238;2024-01-06T21:24:55;98220.81;;;4.20;100.00
16431;BME280;8325;49.284;7.238;2024-01-06T21:29:09;98217.28;;;4.11;100.00
16431;BME280;8325;49.284;7.238;2024-01-06T21:33:21;98221.25;;;4.05;100.00
16431;BME280;8325;49.284;7.238;2024-01-06T21:37:33;98217.03;;;4.04;100.00
16431;BME280;8325;49.284;7.238;2024-01-06T21:41:45;98212.53;;;4.06;100.00
16431;BME280;8325;49.284;7.238;2024-01-06T21:45:57;98209.53;;;4.11;100.00
16431;BME280;8325;49.284;7.238;2024-01-06T21:50:10;98212.25;;;4.19;100.00
16431;BME280;8325;49.284;7.238;2024-01-06T21:54:22;98212.47;;;4.26;100.00
16431;BME280;8325;49.284;7.238;2024-01-06T21:58:34;98221.72;;;4.28;100.00
16431;BME280;8325;49.284;7.238;2024-01-06T22:02:47;98226.66;;;4.12;100.00
16431;BME280;8325;49.284;7.238;2024-01-06T22:07:01;98225.97;;;4.20;100.00
16431;BME280;8325;49.284;7.238;2024-01-06T22:11:13;98237.25;;;4.19;100.00
16431;BME280;8325;49.284;7.238;2024-01-06T22:15:25;98237.81;;;4.22;100.00
16431;BME280;8325;49.284;7.238;2024-01-06T22:19:37;98236.84;;;4.23;100.00
16431;BME280;8325;49.284;7.238;2024-01-06T22:23:50;98242.44;;;4.09;100.00
16431;BME280;8325;49.284;7.238;2024-01-06T22:28:02;98239.22;;;4.07;100.00
